sensor_id;sensor_type;location;lat;lon;timestamp;P1;durP1;ratioP1;P2;durP2;ratioP2
15266;SDS011;7735;49.144;8.668;2023-07-28T00:02:19;5.93;;;2.20;;
15266;SDS011;7735;49.144;8.668;2023-07-28T00:04:45;4.27;;;2.00;;
15266;SDS011;7735;49.144;8.668;2023-07-28T00:07:13;4.13;;;1.90;;
15266;SDS011;7735;49.144;8.668;2023-07-28T00:09:40;3.40;;;1.80;;
15266;SDS011;7735;49.144;8.668;2023-07-28T00:12:07;3.10;;;2.10;;
15266;SDS011;7735;49.144;8.668;2023-07-28T00:14:34;3.37;;;1.73;;
15266;SDS011;7735;49.144;8.668;2023-07-28T00:17:00;2.43;;;2.00;;
15266;SDS011;7735;49.144;8.668;2023-07-28T00:19:27;7.80;;;2.30;;
15266;SDS011;7735;49.144;8.668;2023-07-28T00:21:53;2.87;;;1.87;;
15266;SDS011;7735;49.144;8.668;2023-07-28T00:24:22;4.47;;;2.07;;
15266;SDS011;7735;49.144;8.668;2023-07-28T00:26:49;2.43;;;2.00;;
15266;SDS011;7735;49.144;8.668;2023-07-28T00:29:15;2.50;;;2.00;;
15266;SDS011;7735;49.144;8.668;2023-07-28T00:31:42;3.47;;;2.40;;
15266;SDS011;7735;49.144;8.668;2023-07-28T00:34:09;3.30;;;2.00;;
15266;SDS011;7735;49.144;8.668;2023-07-28T00:36:35;2.77;;;2.00;;
15266;SDS011;7735;49.144;8.668;2023-07-28T00:39:02;2.93;;;1.90;;
15266;SDS011;7735;49.144;8.668;2023-07-28T00:41:30;3.10;;;1.80;;
15266;SDS011;7735;49.144;8.668;2023-07-28T00:43:57;4.93;;;2.13;;
15266;SDS011;7735;49.144;8.668;2023-07-28T00:46:23;4.43;;;1.83;;
15266;SDS011;7735;49.144;8.668;2023-07-28T00:48:50;3.20;;;1.87;;
15266;SDS011;7735;49.144;8.668;2023-07-28T00:51:17;4.63;;;2.07;;
15266;SDS011;7735;49.144;8.668;2023-07-28T00:53:44;2.80;;;2.10;;
15266;SDS011;7735;49.144;8.668;2023-07-28T00:56:11;2.73;;;2.13;;
15266;SDS011;7735;49.144;8.668;2023-07-28T00:58:39;3.10;;;2.03;;
15266;SDS011;7735;49.144;8.668;2023-07-28T01:01:05;2.93;;;2.30;;
15266;SDS011;7735;49.144;8.668;2023-07-28T01:03:32;4.50;;;2.27;;
15266;SDS011;7735;49.144;8.668;2023-07-28T01:06:02;3.30;;;2.17;;
15266;SDS011;7735;49.144;8.668;2023-07-28T01:08:41;2.67;;;2.13;;
15266;SDS011;7735;49.144;8.668;2023-07-28T01:11:14;4.63;;;2.57;;
15266;SDS011;7735;49.144;8.668;2023-07-28T01:13:42;3.43;;;2.30;;
15266;SDS011;7735;49.144;8.668;2023-07-28T01:16:08;2.30;;;2.10;;
15266;SDS011;7735;49.144;8.668;2023-07-28T01:18:35;2.93;;;2.17;;
15266;SDS011;7735;49.144;8.668;2023-07-28T01:21:03;3.03;;;2.07;;
15266;SDS011;7735;49.144;8.668;2023-07-28T01:23:34;4.43;;;2.10;;
15266;SDS011;7735;49.144;8.668;2023-07-28T01:26:08;3.40;;;2.10;;
15266;SDS011;7735;49.144;8.668;2023-07-28T01:28:38;3.60;;;2.50;;
15266;SDS011;7735;49.144;8.668;2023-07-28T01:31:06;3.13;;;2.00;;
15266;SDS011;7735;49.144;8.668;2023-07-28T01:33:34;2.07;;;1.83;;
15266;SDS011;7735;49.144;8.668;2023-07-28T01:36:01;3.20;;;2.47;;
15266;SDS011;7735;49.144;8.668;2023-07-28T01:38:28;4.27;;;2.40;;
15266;SDS011;7735;49.144;8.668;2023-07-28T01:40:55;5.50;;;2.40;;
15266;SDS011;7735;49.144;8.668;2023-07-28T01:43:22;2.40;;;2.00;;
15266;SDS011;7735;49.144;8.668;2023-07-28T01:45:49;2.77;;;2.00;;
15266;SDS011;7735;49.144;8.668;2023-07-28T01:48:16;2.63;;;1.80;;
15266;SDS011;7735;49.144;8.668;2023-07-28T01:50:43;3.00;;;2.20;;
15266;SDS011;7735;49.144;8.668;2023-07-28T01:53:09;2.53;;;1.83;;
15266;SDS011;7735;49.144;8.668;2023-07-28T01:55:36;2.70;;;2.07;;
15266;SDS011;7735;49.144;8.668;2023-07-28T01:58:02;4.20;;;2.10;;
15266;SDS011;7735;49.144;8.668;2023-07-28T02:00:29;4.20;;;2.33;;
15266;SDS011;7735;49.144;8.668;2023-07-28T02:02:57;3.50;;;2.00;;
15266;SDS011;7735;49.144;8.668;2023-07-28T02:05:26;2.70;;;1.90;;
15266;SDS011;7735;49.144;8.668;2023-07-28T02:07:53;3.80;;;2.00;;
15266;SDS011;7735;49.144;8.668;2023-07-28T02:10:21;6.10;;;2.40;;
15266;SDS011;7735;49.144;8.668;2023-07-28T02:12:48;3.37;;;2.40;;
15266;SDS011;7735;49.144;8.668;2023-07-28T02:15:14;2.50;;;2.00;;
15266;SDS011;7735;49.144;8.668;2023-07-28T02:17:41;2.97;;;2.00;;
15266;SDS011;7735;49.144;8.668;2023-07-28T02:20:09;3.07;;;2.23;;
15266;SDS011;7735;49.144;8.668;2023-07-28T02:22:37;4.20;;;2.07;;
15266;SDS011;7735;49.144;8.668;2023-07-28T02:25:05;3.33;;;2.23;;
15266;SDS011;7735;49.144;8.668;2023-07-28T02:27:32;3.23;;;2.10;;
15266;SDS011;7735;49.144;8.668;2023-07-28T02:29:58;3.40;;;2.60;;
15266;SDS011;7735;49.144;8.668;2023-07-28T02:32:25;2.87;;;2.13;;
15266;SDS011;7735;49.144;8.668;2023-07-28T02:34:52;4.00;;;2.27;;
15266;SDS011;7735;49.144;8.668;2023-07-28T02:40:17;3.50;;;2.30;;
15266;SDS011;7735;49.144;8.668;2023-07-28T02:42:43;3.93;;;2.13;;
15266;SDS011;7735;49.144;8.668;2023-07-28T02:45:10;2.70;;;2.03;;
15266;SDS011;7735;49.144;8.668;2023-07-28T02:47:37;4.30;;;2.10;;
15266;SDS011;7735;49.144;8.668;2023-07-28T02:50:04;3.60;;;2.50;;
15266;SDS011;7735;49.144;8.668;2023-07-28T02:52:31;7.43;;;2.30;;
15266;SDS011;7735;49.144;8.668;2023-07-28T02:54:59;2.63;;;1.90;;
15266;SDS011;7735;49.144;8.668;2023-07-28T02:57:25;5.37;;;2.40;;
15266;SDS011;7735;49.144;8.668;2023-07-28T02:59:52;3.37;;;1.87;;
15266;SDS011;7735;49.144;8.668;2023-07-28T03:02:18;2.73;;;2.10;;
15266;SDS011;7735;49.144;8.668;2023-07-28T03:04:45;3.00;;;2.23;;
15266;SDS011;7735;49.144;8.668;2023-07-28T03:07:11;3.87;;;2.13;;
15266;SDS011;7735;49.144;8.668;2023-07-28T03:09:39;3.40;;;2.10;;
15266;SDS011;7735;49.144;8.668;2023-07-28T03:12:07;6.53;;;2.50;;
15266;SDS011;7735;49.144;8.668;2023-07-28T03:14:34;3.90;;;2.10;;
15266;SDS011;7735;49.144;8.668;2023-07-28T03:17:01;4.73;;;2.57;;
15266;SDS011;7735;49.144;8.668;2023-07-28T03:19:28;3.57;;;2.20;;
15266;SDS011;7735;49.144;8.668;2023-07-28T03:21:54;3.43;;;2.50;;
15266;SDS011;7735;49.144;8.668;2023-07-28T03:24:21;3.20;;;2.10;;
15266;SDS011;7735;49.144;8.668;2023-07-28T03:26:47;3.07;;;2.07;;
15266;SDS011;7735;49.144;8.668;2023-07-28T03:29:15;4.43;;;2.37;;
15266;SDS011;7735;49.144;8.668;2023-07-28T03:34:49;3.30;;;2.23;;
15266;SDS011;7735;49.144;8.668;2023-07-28T03:37:16;2.20;;;2.00;;
15266;SDS011;7735;49.144;8.668;2023-07-28T03:39:43;4.73;;;2.70;;
15266;SDS011;7735;49.144;8.668;2023-07-28T03:42:09;5.40;;;2.70;;
15266;SDS011;7735;49.144;8.668;2023-07-28T03:44:37;3.77;;;2.07;;
15266;SDS011;7735;49.144;8.668;2023-07-28T03:47:06;3.30;;;2.20;;
15266;SDS011;7735;49.144;8.668;2023-07-28T03:49:33;5.37;;;2.30;;
15266;SDS011;7735;49.144;8.668;2023-07-28T03:55:22;3.37;;;2.53;;
15266;SDS011;7735;49.144;8.668;2023-07-28T03:57:49;4.70;;;2.27;;
15266;SDS011;7735;49.144;8.668;2023-07-28T04:00:24;5.23;;;2.50;;
15266;SDS011;7735;49.144;8.668;2023-07-28T04:02:51;3.20;;;2.20;;
15266;SDS011;7735;49.144;8.668;2023-07-28T04:05:17;4.80;;;2.20;;
15266;SDS011;7735;49.144;8.668;2023-07-28T04:07:44;4.87;;;2.30;;
15266;SDS011;7735;49.144;8.668;2023-07-28T04:10:10;4.27;;;1.87;;
15266;SDS011;7735;49.144;8.668;2023-07-28T04:12:37;3.10;;;2.23;;
15266;SDS011;7735;49.144;8.668;2023-07-28T04:15:04;3.83;;;2.37;;
15266;SDS011;7735;49.144;8.668;2023-07-28T04:17:32;5.17;;;2.40;;
15266;SDS011;7735;49.144;8.668;2023-07-28T04:19:59;5.17;;;2.67;;
15266;SDS011;7735;49.144;8.668;2023-07-28T04:22:26;3.73;;;2.40;;
15266;SDS011;7735;49.144;8.668;2023-07-28T04:24:52;3.57;;;2.50;;
15266;SDS011;7735;49.144;8.668;2023-07-28T04:27:20;2.87;;;2.30;;
15266;SDS011;7735;49.144;8.668;2023-07-28T04:29:46;3.70;;;2.60;;
15266;SDS011;7735;49.144;8.668;2023-07-28T04:32:13;4.60;;;2.57;;
15266;SDS011;7735;49.144;8.668;2023-07-28T04:34:41;6.23;;;2.70;;
15266;SDS011;7735;49.144;8.668;2023-07-28T04:37:07;4.00;;;2.33;;
15266;SDS011;7735;49.144;8.668;2023-07-28T04:39:34;4.47;;;2.63;;
15266;SDS011;7735;49.144;8.668;2023-07-28T04:42:01;3.40;;;2.27;;
15266;SDS011;7735;49.144;8.668;2023-07-28T04:44:27;3.17;;;2.43;;
15266;SDS011;7735;49.144;8.668;2023-07-28T04:46:54;5.10;;;2.53;;
15266;SDS011;7735;49.144;8.668;2023-07-28T04:49:20;4.63;;;2.77;;
15266;SDS011;7735;49.144;8.668;2023-07-28T04:51:49;5.83;;;2.40;;
15266;SDS011;7735;49.144;8.668;2023-07-28T04:54:15;3.53;;;2.23;;
15266;SDS011;7735;49.144;8.668;2023-07-28T04:56:42;5.53;;;2.83;;
15266;SDS011;7735;49.144;8.668;2023-07-28T04:59:08;5.53;;;2.60;;
15266;SDS011;7735;49.144;8.668;2023-07-28T05:01:35;3.57;;;2.33;;
15266;SDS011;7735;49.144;8.668;2023-07-28T05:04:01;3.67;;;2.63;;
15266;SDS011;7735;49.144;8.668;2023-07-28T05:06:28;4.33;;;2.47;;
15266;SDS011;7735;49.144;8.668;2023-07-28T05:08:56;3.30;;;2.40;;
15266;SDS011;7735;49.144;8.668;2023-07-28T05:11:23;4.23;;;2.83;;
15266;SDS011;7735;49.144;8.668;2023-07-28T05:13:49;2.47;;;2.10;;
15266;SDS011;7735;49.144;8.668;2023-07-28T05:16:16;3.00;;;2.20;;
15266;SDS011;7735;49.144;8.668;2023-07-28T05:18:42;2.70;;;2.13;;
15266;SDS011;7735;49.144;8.668;2023-07-28T05:24:00;3.67;;;2.53;;
15266;SDS011;7735;49.144;8.668;2023-07-28T05:26:27;3.60;;;2.40;;
15266;SDS011;7735;49.144;8.668;2023-07-28T05:28:56;3.77;;;2.60;;
15266;SDS011;7735;49.144;8.668;2023-07-28T05:31:23;4.27;;;2.33;;
15266;SDS011;7735;49.144;8.668;2023-07-28T05:33:50;2.33;;;2.00;;
15266;SDS011;7735;49.144;8.668;2023-07-28T05:36:18;2.90;;;2.40;;
15266;SDS011;7735;49.144;8.668;2023-07-28T05:38:45;2.80;;;2.20;;
15266;SDS011;7735;49.144;8.668;2023-07-28T05:41:13;2.93;;;2.40;;
15266;SDS011;7735;49.144;8.668;2023-07-28T05:43:39;3.17;;;2.40;;
15266;SDS011;7735;49.144;8.668;2023-07-28T05:46:06;3.43;;;2.40;;
15266;SDS011;7735;49.144;8.668;2023-07-28T05:48:33;3.17;;;2.63;;
15266;SDS011;7735;49.144;8.668;2023-07-28T05:50:59;2.27;;;1.80;;
15266;SDS011;7735;49.144;8.668;2023-07-28T05:53:26;3.50;;;1.80;;
15266;SDS011;7735;49.144;8.668;2023-07-28T05:55:53;2.50;;;2.17;;
15266;SDS011;7735;49.144;8.668;2023-07-28T05:58:21;3.25;;;2.13;;
15266;SDS011;7735;49.144;8.668;2023-07-28T06:00:47;2.67;;;2.03;;
15266;SDS011;7735;49.144;8.668;2023-07-28T06:03:14;2.72;;;2.08;;
15266;SDS011;7735;49.144;8.668;2023-07-28T06:05:42;2.67;;;2.17;;
15266;SDS011;7735;49.144;8.668;2023-07-28T06:08:08;3.33;;;2.13;;
15266;SDS011;7735;49.144;8.668;2023-07-28T06:10:36;2.63;;;1.73;;
15266;SDS011;7735;49.144;8.668;2023-07-28T06:13:03;2.10;;;1.90;;
15266;SDS011;7735;49.144;8.668;2023-07-28T06:15:31;2.50;;;1.90;;
15266;SDS011;7735;49.144;8.668;2023-07-28T06:18:02;2.80;;;2.07;;
15266;SDS011;7735;49.144;8.668;2023-07-28T06:20:33;2.30;;;1.70;;
15266;SDS011;7735;49.144;8.668;2023-07-28T06:23:03;3.50;;;2.00;;
15266;SDS011;7735;49.144;8.668;2023-07-28T06:25:30;6.03;;;1.80;;
15266;SDS011;7735;49.144;8.668;2023-07-28T06:27:56;2.40;;;1.63;;
15266;SDS011;7735;49.144;8.668;2023-07-28T06:30:23;3.30;;;1.90;;
15266;SDS011;7735;49.144;8.668;2023-07-28T06:32:52;2.23;;;1.70;;
15266;SDS011;7735;49.144;8.668;2023-07-28T06:35:19;1.73;;;1.60;;
15266;SDS011;7735;49.144;8.668;2023-07-28T06:37:45;2.17;;;1.83;;
15266;SDS011;7735;49.144;8.668;2023-07-28T06:40:12;2.00;;;1.57;;
15266;SDS011;7735;49.144;8.668;2023-07-28T06:42:39;3.30;;;2.10;;
15266;SDS011;7735;49.144;8.668;2023-07-28T06:45:06;1.83;;;1.50;;
15266;SDS011;7735;49.144;8.668;2023-07-28T06:47:33;2.63;;;1.57;;
15266;SDS011;7735;49.144;8.668;2023-07-28T06:50:01;1.53;;;1.33;;
15266;SDS011;7735;49.144;8.668;2023-07-28T06:52:29;2.60;;;1.40;;
15266;SDS011;7735;49.144;8.668;2023-07-28T06:54:56;1.60;;;1.50;;
15266;SDS011;7735;49.144;8.668;2023-07-28T07:00:45;1.70;;;1.40;;
15266;SDS011;7735;49.144;8.668;2023-07-28T07:03:11;1.80;;;1.27;;
15266;SDS011;7735;49.144;8.668;2023-07-28T07:05:40;1.90;;;1.57;;
15266;SDS011;7735;49.144;8.668;2023-07-28T07:08:08;2.00;;;1.57;;
15266;SDS011;7735;49.144;8.668;2023-07-28T07:10:35;1.47;;;1.27;;
15266;SDS011;7735;49.144;8.668;2023-07-28T07:13:02;2.57;;;1.40;;
15266;SDS011;7735;49.144;8.668;2023-07-28T07:15:28;1.77;;;1.50;;
15266;SDS011;7735;49.144;8.668;2023-07-28T07:17:55;2.87;;;1.60;;
15266;SDS011;7735;49.144;8.668;2023-07-28T07:20:21;1.67;;;1.33;;
15266;SDS011;7735;49.144;8.668;2023-07-28T07:22:49;2.20;;;1.50;;
15266;SDS011;7735;49.144;8.668;2023-07-28T07:25:16;2.33;;;1.50;;
15266;SDS011;7735;49.144;8.668;2023-07-28T07:27:43;2.53;;;1.50;;
15266;SDS011;7735;49.144;8.668;2023-07-28T07:30:10;1.60;;;1.30;;
15266;SDS011;7735;49.144;8.668;2023-07-28T07:32:37;1.80;;;1.67;;
15266;SDS011;7735;49.144;8.668;2023-07-28T07:35:04;1.87;;;1.50;;
15266;SDS011;7735;49.144;8.668;2023-07-28T07:37:32;1.97;;;1.60;;
15266;SDS011;7735;49.144;8.668;2023-07-28T07:40:00;2.93;;;1.30;;
15266;SDS011;7735;49.144;8.668;2023-07-28T07:42:28;1.97;;;1.50;;
15266;SDS011;7735;49.144;8.668;2023-07-28T07:45:06;3.60;;;1.40;;
15266;SDS011;7735;49.144;8.668;2023-07-28T07:47:33;3.50;;;2.17;;
15266;SDS011;7735;49.144;8.668;2023-07-28T07:50:00;1.87;;;1.40;;
15266;SDS011;7735;49.144;8.668;2023-07-28T07:52:27;2.47;;;1.40;;
15266;SDS011;7735;49.144;8.668;2023-07-28T07:54:53;1.93;;;1.60;;
15266;SDS011;7735;49.144;8.668;2023-07-28T07:57:21;2.23;;;1.50;;
15266;SDS011;7735;49.144;8.668;2023-07-28T07:59:48;2.27;;;1.70;;
15266;SDS011;7735;49.144;8.668;2023-07-28T08:02:14;1.63;;;1.53;;
15266;SDS011;7735;49.144;8.668;2023-07-28T08:04:41;2.33;;;1.70;;
15266;SDS011;7735;49.144;8.668;2023-07-28T08:07:08;1.90;;;1.30;;
15266;SDS011;7735;49.144;8.668;2023-07-28T08:09:34;1.87;;;1.40;;
15266;SDS011;7735;49.144;8.668;2023-07-28T08:12:02;2.13;;;1.63;;
15266;SDS011;7735;49.144;8.668;2023-07-28T08:14:31;1.73;;;1.40;;
15266;SDS011;7735;49.144;8.668;2023-07-28T08:16:57;3.53;;;1.70;;
15266;SDS011;7735;49.144;8.668;2023-07-28T08:19:24;2.90;;;1.80;;
15266;SDS011;7735;49.144;8.668;2023-07-28T08:21:51;2.20;;;1.50;;
15266;SDS011;7735;49.144;8.668;2023-07-28T08:24:17;1.93;;;1.70;;
15266;SDS011;7735;49.144;8.668;2023-07-28T08:26:45;3.30;;;1.90;;
15266;SDS011;7735;49.144;8.668;2023-07-28T08:29:12;2.33;;;1.30;;
15266;SDS011;7735;49.144;8.668;2023-07-28T08:31:40;1.97;;;1.70;;
15266;SDS011;7735;49.144;8.668;2023-07-28T08:34:07;2.03;;;1.43;;
15266;SDS011;7735;49.144;8.668;2023-07-28T08:36:34;2.70;;;1.80;;
15266;SDS011;7735;49.144;8.668;2023-07-28T08:39:00;4.43;;;1.88;;
15266;SDS011;7735;49.144;8.668;2023-07-28T08:41:27;3.50;;;2.03;;
15266;SDS011;7735;49.144;8.668;2023-07-28T08:44:02;2.03;;;1.83;;
15266;SDS011;7735;49.144;8.668;2023-07-28T08:46:47;2.27;;;1.43;;
15266;SDS011;7735;49.144;8.668;2023-07-28T08:49:13;1.93;;;1.73;;
15266;SDS011;7735;49.144;8.668;2023-07-28T08:51:49;2.33;;;1.90;;
15266;SDS011;7735;49.144;8.668;2023-07-28T08:54:16;2.90;;;1.70;;
15266;SDS011;7735;49.144;8.668;2023-07-28T08:56:43;1.77;;;1.60;;
15266;SDS011;7735;49.144;8.668;2023-07-28T08:59:09;2.27;;;1.57;;
15266;SDS011;7735;49.144;8.668;2023-07-28T09:01:38;2.80;;;1.60;;
15266;SDS011;7735;49.144;8.668;2023-07-28T09:04:12;2.50;;;1.70;;
15266;SDS011;7735;49.144;8.668;2023-07-28T09:06:48;3.83;;;1.57;;
15266;SDS011;7735;49.144;8.668;2023-07-28T09:09:25;1.80;;;1.53;;
15266;SDS011;7735;49.144;8.668;2023-07-28T09:12:01;3.00;;;1.70;;
15266;SDS011;7735;49.144;8.668;2023-07-28T09:14:32;1.77;;;1.53;;
15266;SDS011;7735;49.144;8.668;2023-07-28T09:17:12;2.27;;;1.50;;
15266;SDS011;7735;49.144;8.668;2023-07-28T09:19:50;1.77;;;1.30;;
15266;SDS011;7735;49.144;8.668;2023-07-28T09:22:18;4.03;;;1.90;;
15266;SDS011;7735;49.144;8.668;2023-07-28T09:24:45;1.80;;;1.60;;
15266;SDS011;7735;49.144;8.668;2023-07-28T09:30:08;2.20;;;1.60;;
15266;SDS011;7735;49.144;8.668;2023-07-28T09:32:38;2.43;;;1.60;;
15266;SDS011;7735;49.144;8.668;2023-07-28T09:35:09;1.70;;;1.40;;
15266;SDS011;7735;49.144;8.668;2023-07-28T09:37:38;3.87;;;1.50;;
15266;SDS011;7735;49.144;8.668;2023-07-28T09:40:06;2.03;;;1.43;;
15266;SDS011;7735;49.144;8.668;2023-07-28T09:42:44;2.90;;;1.73;;
15266;SDS011;7735;49.144;8.668;2023-07-28T09:45:21;2.43;;;1.60;;
15266;SDS011;7735;49.144;8.668;2023-07-28T09:47:51;1.90;;;1.60;;
15266;SDS011;7735;49.144;8.668;2023-07-28T09:50:32;2.03;;;1.37;;
15266;SDS011;7735;49.144;8.668;2023-07-28T09:53:01;2.17;;;1.53;;
15266;SDS011;7735;49.144;8.668;2023-07-28T09:55:35;1.67;;;1.40;;
15266;SDS011;7735;49.144;8.668;2023-07-28T10:01:25;2.67;;;1.53;;
15266;SDS011;7735;49.144;8.668;2023-07-28T10:03:53;1.90;;;1.33;;
15266;SDS011;7735;49.144;8.668;2023-07-28T10:06:21;1.37;;;1.27;;
15266;SDS011;7735;49.144;8.668;2023-07-28T10:08:48;1.80;;;1.40;;
15266;SDS011;7735;49.144;8.668;2023-07-28T10:11:22;1.93;;;1.60;;
15266;SDS011;7735;49.144;8.668;2023-07-28T10:13:50;1.67;;;1.50;;
15266;SDS011;7735;49.144;8.668;2023-07-28T10:16:19;1.77;;;1.30;;
15266;SDS011;7735;49.144;8.668;2023-07-28T10:18:51;2.33;;;1.50;;
15266;SDS011;7735;49.144;8.668;2023-07-28T10:21:20;1.53;;;1.40;;
15266;SDS011;7735;49.144;8.668;2023-07-28T10:24:06;1.67;;;1.30;;
15266;SDS011;7735;49.144;8.668;2023-07-28T10:26:36;2.17;;;1.43;;
15266;SDS011;7735;49.144;8.668;2023-07-28T10:29:10;1.43;;;1.30;;
15266;SDS011;7735;49.144;8.668;2023-07-28T10:31:48;2.13;;;1.67;;
15266;SDS011;7735;49.144;8.668;2023-07-28T10:34:16;6.17;;;1.50;;
15266;SDS011;7735;49.144;8.668;2023-07-28T10:36:44;1.40;;;1.20;;
15266;SDS011;7735;49.144;8.668;2023-07-28T10:39:15;2.43;;;1.60;;
15266;SDS011;7735;49.144;8.668;2023-07-28T10:44:28;2.93;;;1.63;;
15266;SDS011;7735;49.144;8.668;2023-07-28T10:46:55;2.72;;;1.67;;
15266;SDS011;7735;49.144;8.668;2023-07-28T10:49:23;1.80;;;1.53;;
15266;SDS011;7735;49.144;8.668;2023-07-28T10:51:52;2.30;;;1.50;;
15266;SDS011;7735;49.144;8.668;2023-07-28T10:54:19;1.63;;;1.50;;
15266;SDS011;7735;49.144;8.668;2023-07-28T10:56:46;2.60;;;1.77;;
15266;SDS011;7735;49.144;8.668;2023-07-28T10:59:13;2.43;;;1.87;;
15266;SDS011;7735;49.144;8.668;2023-07-28T11:01:41;1.77;;;1.50;;
15266;SDS011;7735;49.144;8.668;2023-07-28T11:04:09;2.50;;;1.90;;
15266;SDS011;7735;49.144;8.668;2023-07-28T11:06:37;2.23;;;1.90;;
15266;SDS011;7735;49.144;8.668;2023-07-28T11:09:07;2.30;;;1.70;;
15266;SDS011;7735;49.144;8.668;2023-07-28T11:11:34;2.73;;;1.97;;
15266;SDS011;7735;49.144;8.668;2023-07-28T11:14:02;1.30;;;1.03;;
15266;SDS011;7735;49.144;8.668;2023-07-28T11:16:30;2.00;;;1.57;;
15266;SDS011;7735;49.144;8.668;2023-07-28T11:19:00;1.70;;;1.30;;
15266;SDS011;7735;49.144;8.668;2023-07-28T11:21:27;2.17;;;1.40;;
15266;SDS011;7735;49.144;8.668;2023-07-28T11:23:53;1.77;;;1.50;;
15266;SDS011;7735;49.144;8.668;2023-07-28T11:26:21;2.53;;;1.60;;
15266;SDS011;7735;49.144;8.668;2023-07-28T11:28:48;1.57;;;1.47;;
15266;SDS011;7735;49.144;8.668;2023-07-28T11:31:15;2.10;;;1.40;;
15266;SDS011;7735;49.144;8.668;2023-07-28T11:33:42;4.73;;;1.70;;
15266;SDS011;7735;49.144;8.668;2023-07-28T11:36:09;2.77;;;2.00;;
15266;SDS011;7735;49.144;8.668;2023-07-28T11:38:35;2.03;;;1.60;;
15266;SDS011;7735;49.144;8.668;2023-07-28T11:41:03;1.63;;;1.30;;
15266;SDS011;7735;49.144;8.668;2023-07-28T11:43:31;2.27;;;1.63;;
15266;SDS011;7735;49.144;8.668;2023-07-28T11:45:58;1.93;;;1.60;;
15266;SDS011;7735;49.144;8.668;2023-07-28T11:48:29;1.80;;;1.50;;
15266;SDS011;7735;49.144;8.668;2023-07-28T11:50:56;2.00;;;1.60;;
15266;SDS011;7735;49.144;8.668;2023-07-28T11:53:23;3.73;;;1.87;;
15266;SDS011;7735;49.144;8.668;2023-07-28T11:55:51;2.13;;;1.60;;
15266;SDS011;7735;49.144;8.668;2023-07-28T11:58:18;1.50;;;1.33;;
15266;SDS011;7735;49.144;8.668;2023-07-28T12:00:50;2.57;;;1.80;;
15266;SDS011;7735;49.144;8.668;2023-07-28T12:03:19;2.47;;;1.73;;
15266;SDS011;7735;49.144;8.668;2023-07-28T12:05:58;2.77;;;1.80;;
15266;SDS011;7735;49.144;8.668;2023-07-28T12:08:35;2.27;;;1.77;;
15266;SDS011;7735;49.144;8.668;2023-07-28T12:11:02;3.40;;;1.73;;
15266;SDS011;7735;49.144;8.668;2023-07-28T12:13:28;2.83;;;1.80;;
15266;SDS011;7735;49.144;8.668;2023-07-28T12:15:57;2.73;;;1.80;;
15266;SDS011;7735;49.144;8.668;2023-07-28T12:18:27;2.67;;;1.97;;
15266;SDS011;7735;49.144;8.668;2023-07-28T12:20:56;2.67;;;2.00;;
15266;SDS011;7735;49.144;8.668;2023-07-28T12:23:34;3.57;;;2.10;;
15266;SDS011;7735;49.144;8.668;2023-07-28T12:26:00;2.80;;;1.73;;
15266;SDS011;7735;49.144;8.668;2023-07-28T12:28:34;3.90;;;2.20;;
15266;SDS011;7735;49.144;8.668;2023-07-28T12:31:02;2.90;;;2.00;;
15266;SDS011;7735;49.144;8.668;2023-07-28T12:33:29;3.63;;;1.83;;
15266;SDS011;7735;49.144;8.668;2023-07-28T12:35:55;2.70;;;1.87;;
15266;SDS011;7735;49.144;8.668;2023-07-28T12:38:22;3.33;;;2.13;;
15266;SDS011;7735;49.144;8.668;2023-07-28T12:40:49;4.17;;;2.20;;
15266;SDS011;7735;49.144;8.668;2023-07-28T12:43:15;3.47;;;2.10;;
